PWSweather.com
Personal Weather Stations
Station Observations
ANTHEMNP
Anthem North Parkside, Anthem, AZ 85086

Anthem North ParksideAnthem, AZ 85086

Lat: 33.876464, Lon: -112.13861199999997

Elevation: 1930

Station Type: Davis Vantage Vue with Pro 2 console

http://www.azjerry.com/ANPW/wxindex.php

High Low Average
Temperature 109.2°F42.9°C 86.0°F30.0°C 98.7°F37.1°C
Dew Point 65.0°F18.3°C 48.0°F8.9°C 56.3°F13.5°C
Winds 5.9 mph 9.5 kmh Calm Calm 2.0 mph SSE3.2 kmh SSE
Wind Gusts 17.0 mph27.4 kmh -- 6.0 mph9.7 kmh
Humidity 45% 15% 26%
Pressure 29.91 in1012.9 mb 29.74 in1007.1 mb -
Precipitation 0.00 in0.0 mm - -
Hour Temp Dew Point Humidity Winds Wind Gusts Pressure Precip Precip Rate Daily Precip Total
12:00 AM 92.6°F33.7°C 57.0°F13.9°C 30% Calm Calm -- 29.86 in1011.2 mb 0.00 in0.0 mm 0.00 in0.0 mm 0.00 in0.0 mm
12:10 AM 92.0°F33.3°C 57.0°F13.9°C 31% Calm Calm -- 29.86 in1011.2 mb 0.00 in0.0 mm 0.00 in0.0 mm 0.00 in0.0 mm
12:20 AM 92.0°F33.3°C 57.0°F13.9°C 31% Calm Calm -- 29.87 in1011.5 mb 0.00 in0.0 mm 0.00 in0.0 mm 0.00 in0.0 mm
12:30 AM 92.3°F33.5°C 57.0°F13.9°C 30% Calm Calm -- 29.87 in1011.5 mb 0.00 in0.0 mm 0.00 in0.0 mm 0.00 in0.0 mm
12:40 AM 91.7°F33.2°C 57.0°F13.9°C 31% Calm Calm -- 29.86 in1011.2 mb 0.00 in0.0 mm 0.00 in0.0 mm 0.00 in0.0 mm
12:50 AM 91.9°F33.3°C 57.0°F13.9°C 31% Calm Calm 1.0 mph1.6 kmh 29.86 in1011.2 mb 0.00 in0.0 mm 0.00 in0.0 mm 0.00 in0.0 mm
01:00 AM 91.6°F33.1°C 57.0°F13.9°C 31% Calm Calm -- 29.86 in1011.2 mb 0.00 in0.0 mm 0.00 in0.0 mm 0.00 in0.0 mm
01:10 AM 91.5°F33.1°C 57.0°F13.9°C 31% Calm Calm -- 29.86 in1011.2 mb 0.00 in0.0 mm 0.00 in0.0 mm 0.00 in0.0 mm
01:20 AM 91.0°F32.8°C 57.0°F13.9°C 32% Calm Calm -- 29.86 in1011.2 mb 0.00 in0.0 mm 0.00 in0.0 mm 0.00 in0.0 mm
01:30 AM 90.8°F32.7°C 58.0°F14.4°C 33% Calm Calm -- 29.86 in1011.2 mb 0.00 in0.0 mm 0.00 in0.0 mm 0.00 in0.0 mm
01:40 AM 90.1°F32.3°C 57.0°F13.9°C 33% 0.1 mph SE0.2 kmh SE 1.0 mph1.6 kmh 29.86 in1011.2 mb 0.00 in0.0 mm 0.00 in0.0 mm 0.00 in0.0 mm
01:50 AM 89.7°F32.1°C 57.0°F13.9°C 33% 0.8 mph NE1.3 kmh NE 3.0 mph4.8 kmh 29.86 in1011.2 mb 0.00 in0.0 mm 0.00 in0.0 mm 0.00 in0.0 mm
02:00 AM 89.9°F32.2°C 57.0°F13.9°C 33% 1.2 mph NE1.9 kmh NE 2.0 mph3.2 kmh 29.86 in1011.2 mb 0.00 in0.0 mm 0.00 in0.0 mm 0.00 in0.0 mm
02:10 AM 89.8°F32.1°C 59.0°F15.0°C 35% 2.2 mph NNE3.5 kmh NNE 6.0 mph9.7 kmh 29.86 in1011.2 mb 0.00 in0.0 mm 0.00 in0.0 mm 0.00 in0.0 mm
02:20 AM 89.6°F32.0°C 61.0°F16.1°C 38% 2.2 mph NE3.5 kmh NE 4.0 mph6.4 kmh 29.86 in1011.2 mb 0.00 in0.0 mm 0.00 in0.0 mm 0.00 in0.0 mm
02:30 AM 88.9°F31.6°C 63.0°F17.2°C 42% 1.2 mph N1.9 kmh N 3.0 mph4.8 kmh 29.86 in1011.2 mb 0.00 in0.0 mm 0.00 in0.0 mm 0.00 in0.0 mm
02:40 AM 88.7°F31.5°C 64.0°F17.8°C 44% 2.1 mph NE3.4 kmh NE 4.0 mph6.4 kmh 29.85 in1010.8 mb 0.00 in0.0 mm 0.00 in0.0 mm 0.00 in0.0 mm
02:50 AM 88.5°F31.4°C 65.0°F18.3°C 45% 3.1 mph N5.0 kmh N 5.0 mph8.0 kmh 29.85 in1010.8 mb 0.00 in0.0 mm 0.00 in0.0 mm 0.00 in0.0 mm
03:00 AM 88.3°F31.3°C 64.0°F17.8°C 45% 2.7 mph NE4.3 kmh NE 5.0 mph8.0 kmh 29.86 in1011.2 mb 0.00 in0.0 mm 0.00 in0.0 mm 0.00 in0.0 mm
03:10 AM 88.1°F31.2°C 64.0°F17.8°C 45% 1.9 mph N3.1 kmh N 3.0 mph4.8 kmh 29.85 in1010.8 mb 0.00 in0.0 mm 0.00 in0.0 mm 0.00 in0.0 mm
03:20 AM 88.5°F31.4°C 64.0°F17.8°C 44% 4.2 mph NE6.8 kmh NE 8.0 mph12.9 kmh 29.85 in1010.8 mb 0.00 in0.0 mm 0.00 in0.0 mm 0.00 in0.0 mm
03:30 AM 87.9°F31.1°C 64.0°F17.8°C 45% 2.4 mph NNE3.9 kmh NNE 4.0 mph6.4 kmh 29.85 in1010.8 mb 0.00 in0.0 mm 0.00 in0.0 mm 0.00 in0.0 mm
03:40 AM 87.4°F30.8°C 64.0°F17.8°C 45% 2.2 mph NNE3.5 kmh NNE 5.0 mph8.0 kmh 29.85 in1010.8 mb 0.00 in0.0 mm 0.00 in0.0 mm 0.00 in0.0 mm
03:50 AM 87.5°F30.8°C 64.0°F17.8°C 45% 3.4 mph NE5.5 kmh NE 7.0 mph11.3 kmh 29.86 in1011.2 mb 0.00 in0.0 mm 0.00 in0.0 mm 0.00 in0.0 mm
04:00 AM 87.3°F30.7°C 63.0°F17.2°C 44% 2.8 mph N4.5 kmh N 7.0 mph11.3 kmh 29.86 in1011.2 mb 0.00 in0.0 mm 0.00 in0.0 mm 0.00 in0.0 mm
04:10 AM 87.3°F30.7°C 63.0°F17.2°C 44% 3.6 mph N5.8 kmh N 9.0 mph14.5 kmh 29.86 in1011.2 mb 0.00 in0.0 mm 0.00 in0.0 mm 0.00 in0.0 mm
04:20 AM 87.2°F30.7°C 63.0°F17.2°C 44% 3.9 mph NE6.3 kmh NE 8.0 mph12.9 kmh 29.86 in1011.2 mb 0.00 in0.0 mm 0.00 in0.0 mm 0.00 in0.0 mm
04:30 AM 86.9°F30.5°C 63.0°F17.2°C 44% 2.3 mph N3.7 kmh N 5.0 mph8.0 kmh 29.86 in1011.2 mb 0.00 in0.0 mm 0.00 in0.0 mm 0.00 in0.0 mm
04:40 AM 87.1°F30.6°C 63.0°F17.2°C 44% 4.9 mph N7.9 kmh N 9.0 mph14.5 kmh 29.87 in1011.5 mb 0.00 in0.0 mm 0.00 in0.0 mm 0.00 in0.0 mm
04:50 AM 87.0°F30.6°C 62.0°F16.7°C 43% 3.7 mph N6.0 kmh N 6.0 mph9.7 kmh 29.87 in1011.5 mb 0.00 in0.0 mm 0.00 in0.0 mm 0.00 in0.0 mm
05:00 AM 87.2°F30.7°C 62.0°F16.7°C 43% 4.3 mph N6.9 kmh N 8.0 mph12.9 kmh 29.87 in1011.5 mb 0.00 in0.0 mm 0.00 in0.0 mm 0.00 in0.0 mm
05:10 AM 86.6°F30.3°C 62.0°F16.7°C 43% 3.1 mph NNE5.0 kmh NNE 6.0 mph9.7 kmh 29.87 in1011.5 mb 0.00 in0.0 mm 0.00 in0.0 mm 0.00 in0.0 mm
05:20 AM 86.9°F30.5°C 61.0°F16.1°C 42% 2.6 mph NNE4.2 kmh NNE 5.0 mph8.0 kmh 29.87 in1011.5 mb 0.00 in0.0 mm 0.00 in0.0 mm 0.00 in0.0 mm
05:30 AM 86.7°F30.4°C 62.0°F16.7°C 43% 3.4 mph NNE5.5 kmh NNE 7.0 mph11.3 kmh 29.87 in1011.5 mb 0.00 in0.0 mm 0.00 in0.0 mm 0.00 in0.0 mm
05:40 AM 86.4°F30.2°C 61.0°F16.1°C 43% 4.0 mph N6.4 kmh N 8.0 mph12.9 kmh 29.87 in1011.5 mb 0.00 in0.0 mm 0.00 in0.0 mm 0.00 in0.0 mm
05:50 AM 86.4°F30.2°C 61.0°F16.1°C 43% 2.4 mph N3.9 kmh N 5.0 mph8.0 kmh 29.88 in1011.9 mb 0.00 in0.0 mm 0.00 in0.0 mm 0.00 in0.0 mm
06:00 AM 86.0°F30.0°C 62.0°F16.7°C 44% 3.1 mph NE5.0 kmh NE 9.0 mph14.5 kmh 29.88 in1011.9 mb 0.00 in0.0 mm 0.00 in0.0 mm 0.00 in0.0 mm
06:10 AM 86.2°F30.1°C 62.0°F16.7°C 44% 3.2 mph NNE5.1 kmh NNE 6.0 mph9.7 kmh 29.89 in1012.2 mb 0.00 in0.0 mm 0.00 in0.0 mm 0.00 in0.0 mm
06:20 AM 86.9°F30.5°C 61.0°F16.1°C 42% 4.2 mph N6.8 kmh N 10.0 mph16.1 kmh 29.89 in1012.2 mb 0.00 in0.0 mm 0.00 in0.0 mm 0.00 in0.0 mm
06:30 AM 87.6°F30.9°C 61.0°F16.1°C 41% 3.7 mph N6.0 kmh N 7.0 mph11.3 kmh 29.89 in1012.2 mb 0.00 in0.0 mm 0.00 in0.0 mm 0.00 in0.0 mm
06:40 AM 88.4°F31.3°C 61.0°F16.1°C 40% 3.2 mph NNE5.1 kmh NNE 6.0 mph9.7 kmh 29.89 in1012.2 mb 0.00 in0.0 mm 0.00 in0.0 mm 0.00 in0.0 mm
06:50 AM 88.3°F31.3°C 61.0°F16.1°C 40% 3.2 mph NNE5.1 kmh NNE 6.0 mph9.7 kmh 29.89 in1012.2 mb 0.00 in0.0 mm 0.00 in0.0 mm 0.00 in0.0 mm
07:00 AM 88.9°F31.6°C 62.0°F16.7°C 40% 2.4 mph NNE3.9 kmh NNE 6.0 mph9.7 kmh 29.90 in1012.5 mb 0.00 in0.0 mm 0.00 in0.0 mm 0.00 in0.0 mm
07:10 AM 89.4°F31.9°C 61.0°F16.1°C 39% 2.7 mph NE4.3 kmh NE 6.0 mph9.7 kmh 29.90 in1012.5 mb 0.00 in0.0 mm 0.00 in0.0 mm 0.00 in0.0 mm
07:20 AM 89.7°F32.1°C 61.0°F16.1°C 38% 3.0 mph NE4.8 kmh NE 7.0 mph11.3 kmh 29.91 in1012.9 mb 0.00 in0.0 mm 0.00 in0.0 mm 0.00 in0.0 mm
07:30 AM 90.5°F32.5°C 61.0°F16.1°C 37% 2.7 mph N4.3 kmh N 7.0 mph11.3 kmh 29.91 in1012.9 mb 0.00 in0.0 mm 0.00 in0.0 mm 0.00 in0.0 mm
07:40 AM 92.3°F33.5°C 61.0°F16.1°C 35% 1.1 mph N1.8 kmh N 3.0 mph4.8 kmh 29.91 in1012.9 mb 0.00 in0.0 mm 0.00 in0.0 mm 0.00 in0.0 mm
07:50 AM 94.0°F34.4°C 62.0°F16.7°C 34% 0.3 mph N0.5 kmh N 1.0 mph1.6 kmh 29.91 in1012.9 mb 0.00 in0.0 mm 0.00 in0.0 mm 0.00 in0.0 mm
08:00 AM 96.0°F35.6°C 61.0°F16.1°C 31% 0.6 mph SE1.0 kmh SE 3.0 mph4.8 kmh 29.91 in1012.9 mb 0.00 in0.0 mm 0.00 in0.0 mm 0.00 in0.0 mm
08:10 AM 98.0°F36.7°C 61.0°F16.1°C 29% 0.3 mph S0.5 kmh S 2.0 mph3.2 kmh 29.91 in1012.9 mb 0.00 in0.0 mm 0.00 in0.0 mm 0.00 in0.0 mm
08:20 AM 100.2°F37.9°C 61.0°F16.1°C 27% 0.2 mph SE0.3 kmh SE 2.0 mph3.2 kmh 29.91 in1012.9 mb 0.00 in0.0 mm 0.00 in0.0 mm 0.00 in0.0 mm
08:30 AM 102.0°F38.9°C 60.0°F15.6°C 25% 0.1 mph SE0.2 kmh SE 2.0 mph3.2 kmh 29.90 in1012.5 mb 0.00 in0.0 mm 0.00 in0.0 mm 0.00 in0.0 mm
08:40 AM 101.3°F38.5°C 60.0°F15.6°C 25% 0.2 mph SSE0.3 kmh SSE 1.0 mph1.6 kmh 29.91 in1012.9 mb 0.00 in0.0 mm 0.00 in0.0 mm 0.00 in0.0 mm
08:50 AM 101.7°F38.7°C 61.0°F16.1°C 26% 0.3 mph SE0.5 kmh SE 2.0 mph3.2 kmh 29.91 in1012.9 mb 0.00 in0.0 mm 0.00 in0.0 mm 0.00 in0.0 mm
09:00 AM 100.2°F37.9°C 60.0°F15.6°C 26% 1.4 mph SSW2.3 kmh SSW 4.0 mph6.4 kmh 29.91 in1012.9 mb 0.00 in0.0 mm 0.00 in0.0 mm 0.00 in0.0 mm
09:10 AM 100.1°F37.8°C 60.0°F15.6°C 26% 1.3 mph SW2.1 kmh SW 4.0 mph6.4 kmh 29.91 in1012.9 mb 0.00 in0.0 mm 0.00 in0.0 mm 0.00 in0.0 mm
09:20 AM 100.6°F38.1°C 59.0°F15.0°C 25% 1.1 mph SE1.8 kmh SE 3.0 mph4.8 kmh 29.91 in1012.9 mb 0.00 in0.0 mm 0.00 in0.0 mm 0.00 in0.0 mm
09:30 AM 101.5°F38.6°C 60.0°F15.6°C 25% 0.9 mph WSW1.4 kmh WSW 3.0 mph4.8 kmh 29.91 in1012.9 mb 0.00 in0.0 mm 0.00 in0.0 mm 0.00 in0.0 mm
09:40 AM 101.8°F38.8°C 60.0°F15.6°C 25% 1.5 mph E2.4 kmh E 5.0 mph8.0 kmh 29.90 in1012.5 mb 0.00 in0.0 mm 0.00 in0.0 mm 0.00 in0.0 mm
09:50 AM 102.9°F39.4°C 61.0°F16.1°C 25% 0.9 mph SW1.4 kmh SW 5.0 mph8.0 kmh 29.90 in1012.5 mb 0.00 in0.0 mm 0.00 in0.0 mm 0.00 in0.0 mm
10:00 AM 102.2°F39.0°C 59.0°F15.0°C 24% 1.9 mph WSW3.1 kmh WSW 5.0 mph8.0 kmh 29.90 in1012.5 mb 0.00 in0.0 mm 0.00 in0.0 mm 0.00 in0.0 mm
10:10 AM 103.6°F39.8°C 59.0°F15.0°C 23% 1.2 mph SE1.9 kmh SE 4.0 mph6.4 kmh 29.90 in1012.5 mb 0.00 in0.0 mm 0.00 in0.0 mm 0.00 in0.0 mm
10:20 AM 103.8°F39.9°C 59.0°F15.0°C 23% 1.7 mph ESE2.7 kmh ESE 5.0 mph8.0 kmh 29.90 in1012.5 mb 0.00 in0.0 mm 0.00 in0.0 mm 0.00 in0.0 mm
10:30 AM 103.6°F39.8°C 59.0°F15.0°C 23% 1.7 mph SSW2.7 kmh SSW 4.0 mph6.4 kmh 29.89 in1012.2 mb 0.00 in0.0 mm 0.00 in0.0 mm 0.00 in0.0 mm
10:40 AM 103.4°F39.7°C 59.0°F15.0°C 23% 2.3 mph SE3.7 kmh SE 6.0 mph9.7 kmh 29.90 in1012.5 mb 0.00 in0.0 mm 0.00 in0.0 mm 0.00 in0.0 mm
10:50 AM 104.1°F40.1°C 58.0°F14.4°C 22% 1.4 mph NE2.3 kmh NE 5.0 mph8.0 kmh 29.89 in1012.2 mb 0.00 in0.0 mm 0.00 in0.0 mm 0.00 in0.0 mm
11:00 AM 104.0°F40.0°C 58.0°F14.4°C 22% 2.4 mph SW3.9 kmh SW 7.0 mph11.3 kmh 29.89 in1012.2 mb 0.00 in0.0 mm 0.00 in0.0 mm 0.00 in0.0 mm
11:10 AM 104.4°F40.2°C 59.0°F15.0°C 22% 2.0 mph S3.2 kmh S 8.0 mph12.9 kmh 29.89 in1012.2 mb 0.00 in0.0 mm 0.00 in0.0 mm 0.00 in0.0 mm
11:20 AM 105.1°F40.6°C 58.0°F14.4°C 21% 2.7 mph ESE4.3 kmh ESE 9.0 mph14.5 kmh 29.89 in1012.2 mb 0.00 in0.0 mm 0.00 in0.0 mm 0.00 in0.0 mm
11:30 AM 105.8°F41.0°C 57.0°F13.9°C 20% 2.9 mph SW4.7 kmh SW 8.0 mph12.9 kmh 29.89 in1012.2 mb 0.00 in0.0 mm 0.00 in0.0 mm 0.00 in0.0 mm
11:40 AM 105.3°F40.7°C 58.0°F14.4°C 21% 3.6 mph S5.8 kmh S 10.0 mph16.1 kmh 29.88 in1011.9 mb 0.00 in0.0 mm 0.00 in0.0 mm 0.00 in0.0 mm
11:50 AM 105.5°F40.8°C 55.0°F12.8°C 19% 3.0 mph SE4.8 kmh SE 9.0 mph14.5 kmh 29.88 in1011.9 mb 0.00 in0.0 mm 0.00 in0.0 mm 0.00 in0.0 mm
12:00 PM 106.4°F41.3°C 56.0°F13.3°C 19% 2.0 mph SW3.2 kmh SW 10.0 mph16.1 kmh 29.88 in1011.9 mb 0.00 in0.0 mm 0.00 in0.0 mm 0.00 in0.0 mm
12:10 PM 106.3°F41.3°C 56.0°F13.3°C 19% 2.2 mph SW3.5 kmh SW 8.0 mph12.9 kmh 29.88 in1011.9 mb 0.00 in0.0 mm 0.00 in0.0 mm 0.00 in0.0 mm
12:20 PM 107.1°F41.7°C 55.0°F12.8°C 18% 2.7 mph S4.3 kmh S 8.0 mph12.9 kmh 29.87 in1011.5 mb 0.00 in0.0 mm 0.00 in0.0 mm 0.00 in0.0 mm
12:30 PM 106.8°F41.6°C 55.0°F12.8°C 18% 3.0 mph S4.8 kmh S 9.0 mph14.5 kmh 29.87 in1011.5 mb 0.00 in0.0 mm 0.00 in0.0 mm 0.00 in0.0 mm
12:40 PM 106.3°F41.3°C 55.0°F12.8°C 18% 4.1 mph SSW6.6 kmh SSW 10.0 mph16.1 kmh 29.86 in1011.2 mb 0.00 in0.0 mm 0.00 in0.0 mm 0.00 in0.0 mm
12:50 PM 106.7°F41.5°C 55.0°F12.8°C 18% 3.7 mph S6.0 kmh S 11.0 mph17.7 kmh 29.86 in1011.2 mb 0.00 in0.0 mm 0.00 in0.0 mm 0.00 in0.0 mm
01:00 PM 107.2°F41.8°C 55.0°F12.8°C 18% 3.4 mph SSW5.5 kmh SSW 9.0 mph14.5 kmh 29.86 in1011.2 mb 0.00 in0.0 mm 0.00 in0.0 mm 0.00 in0.0 mm
01:10 PM 106.6°F41.4°C 56.0°F13.3°C 19% 2.6 mph SW4.2 kmh SW 8.0 mph12.9 kmh 29.85 in1010.8 mb 0.00 in0.0 mm 0.00 in0.0 mm 0.00 in0.0 mm
01:20 PM 106.7°F41.5°C 55.0°F12.8°C 18% 2.6 mph SSE4.2 kmh SSE 7.0 mph11.3 kmh 29.85 in1010.8 mb 0.00 in0.0 mm 0.00 in0.0 mm 0.00 in0.0 mm
01:30 PM 107.1°F41.7°C 55.0°F12.8°C 18% 2.9 mph S4.7 kmh S 12.0 mph19.3 kmh 29.84 in1010.5 mb 0.00 in0.0 mm 0.00 in0.0 mm 0.00 in0.0 mm
01:40 PM 107.0°F41.7°C 55.0°F12.8°C 18% 5.9 mph W9.5 kmh W 12.0 mph19.3 kmh 29.84 in1010.5 mb 0.00 in0.0 mm 0.00 in0.0 mm 0.00 in0.0 mm
01:50 PM 107.1°F41.7°C 55.0°F12.8°C 18% 3.7 mph S6.0 kmh S 10.0 mph16.1 kmh 29.83 in1010.2 mb 0.00 in0.0 mm 0.00 in0.0 mm 0.00 in0.0 mm
02:00 PM 108.2°F42.3°C 51.0°F10.6°C 15% 2.7 mph S4.3 kmh S 10.0 mph16.1 kmh 29.83 in1010.2 mb 0.00 in0.0 mm 0.00 in0.0 mm 0.00 in0.0 mm
02:10 PM 108.3°F42.4°C 56.0°F13.3°C 18% 4.1 mph SW6.6 kmh SW 13.0 mph20.9 kmh 29.83 in1010.2 mb 0.00 in0.0 mm 0.00 in0.0 mm 0.00 in0.0 mm
02:20 PM 108.3°F42.4°C 56.0°F13.3°C 18% 2.4 mph SW3.9 kmh SW 7.0 mph11.3 kmh 29.82 in1009.8 mb 0.00 in0.0 mm 0.00 in0.0 mm 0.00 in0.0 mm
02:30 PM 108.6°F42.6°C 55.0°F12.8°C 17% 3.4 mph NW5.5 kmh NW 12.0 mph19.3 kmh 29.81 in1009.5 mb 0.00 in0.0 mm 0.00 in0.0 mm 0.00 in0.0 mm
02:40 PM 108.6°F42.6°C 55.0°F12.8°C 17% 3.5 mph SSE5.6 kmh SSE 14.0 mph22.5 kmh 29.81 in1009.5 mb 0.00 in0.0 mm 0.00 in0.0 mm 0.00 in0.0 mm
02:50 PM 108.4°F42.4°C 53.0°F11.7°C 16% 4.2 mph S6.8 kmh S 13.0 mph20.9 kmh 29.80 in1009.1 mb 0.00 in0.0 mm 0.00 in0.0 mm 0.00 in0.0 mm
03:00 PM 109.2°F42.9°C 52.0°F11.1°C 15% 3.4 mph SW5.5 kmh SW 10.0 mph16.1 kmh 29.80 in1009.1 mb 0.00 in0.0 mm 0.00 in0.0 mm 0.00 in0.0 mm
03:10 PM 108.1°F42.3°C 53.0°F11.7°C 16% 5.6 mph SW9.0 kmh SW 17.0 mph27.4 kmh 29.80 in1009.1 mb 0.00 in0.0 mm 0.00 in0.0 mm 0.00 in0.0 mm
03:20 PM 107.7°F42.1°C 54.0°F12.2°C 17% 5.8 mph SSE9.3 kmh SSE 15.0 mph24.1 kmh 29.79 in1008.8 mb 0.00 in0.0 mm 0.00 in0.0 mm 0.00 in0.0 mm
03:30 PM 108.2°F42.3°C 53.0°F11.7°C 16% 3.4 mph WNW5.5 kmh WNW 11.0 mph17.7 kmh 29.79 in1008.8 mb 0.00 in0.0 mm 0.00 in0.0 mm 0.00 in0.0 mm
03:40 PM 108.5°F42.5°C 53.0°F11.7°C 16% 4.8 mph SW7.7 kmh SW 12.0 mph19.3 kmh 29.78 in1008.5 mb 0.00 in0.0 mm 0.00 in0.0 mm 0.00 in0.0 mm
03:50 PM 108.1°F42.3°C 53.0°F11.7°C 16% 4.0 mph WSW6.4 kmh WSW 13.0 mph20.9 kmh 29.78 in1008.5 mb 0.00 in0.0 mm 0.00 in0.0 mm 0.00 in0.0 mm
04:00 PM 107.8°F42.1°C 53.0°F11.7°C 16% 4.3 mph WSW6.9 kmh WSW 13.0 mph20.9 kmh 29.77 in1008.1 mb 0.00 in0.0 mm 0.00 in0.0 mm 0.00 in0.0 mm
04:10 PM 107.8°F42.1°C 53.0°F11.7°C 16% 3.6 mph SW5.8 kmh SW 8.0 mph12.9 kmh 29.77 in1008.1 mb 0.00 in0.0 mm 0.00 in0.0 mm 0.00 in0.0 mm
04:20 PM 108.1°F42.3°C 53.0°F11.7°C 16% 5.2 mph S8.4 kmh S 14.0 mph22.5 kmh 29.77 in1008.1 mb 0.00 in0.0 mm 0.00 in0.0 mm 0.00 in0.0 mm
04:30 PM 108.3°F42.4°C 53.0°F11.7°C 16% 2.9 mph SSW4.7 kmh SSW 12.0 mph19.3 kmh 29.77 in1008.1 mb 0.00 in0.0 mm 0.00 in0.0 mm 0.00 in0.0 mm
04:40 PM 108.1°F42.3°C 53.0°F11.7°C 16% 2.5 mph SSW4.0 kmh SSW 11.0 mph17.7 kmh 29.76 in1007.8 mb 0.00 in0.0 mm 0.00 in0.0 mm 0.00 in0.0 mm
04:50 PM 108.2°F42.3°C 53.0°F11.7°C 16% 2.2 mph WSW3.5 kmh WSW 8.0 mph12.9 kmh 29.75 in1007.5 mb 0.00 in0.0 mm 0.00 in0.0 mm 0.00 in0.0 mm
05:00 PM 107.8°F42.1°C 53.0°F11.7°C 16% 1.8 mph SSW2.9 kmh SSW 8.0 mph12.9 kmh 29.75 in1007.5 mb 0.00 in0.0 mm 0.00 in0.0 mm 0.00 in0.0 mm
05:10 PM 107.5°F41.9°C 52.0°F11.1°C 16% 4.3 mph S6.9 kmh S 11.0 mph17.7 kmh 29.75 in1007.5 mb 0.00 in0.0 mm 0.00 in0.0 mm 0.00 in0.0 mm
05:20 PM 107.4°F41.9°C 52.0°F11.1°C 16% 3.0 mph SSW4.8 kmh SSW 12.0 mph19.3 kmh 29.75 in1007.5 mb 0.00 in0.0 mm 0.00 in0.0 mm 0.00 in0.0 mm
05:30 PM 107.0°F41.7°C 52.0°F11.1°C 16% 4.5 mph WSW7.2 kmh WSW 11.0 mph17.7 kmh 29.75 in1007.5 mb 0.00 in0.0 mm 0.00 in0.0 mm 0.00 in0.0 mm
05:40 PM 107.5°F41.9°C 52.0°F11.1°C 16% 5.2 mph S8.4 kmh S 16.0 mph25.7 kmh 29.75 in1007.5 mb 0.00 in0.0 mm 0.00 in0.0 mm 0.00 in0.0 mm
05:50 PM 107.6°F42.0°C 53.0°F11.7°C 16% 3.4 mph SW5.5 kmh SW 9.0 mph14.5 kmh 29.74 in1007.1 mb 0.00 in0.0 mm 0.00 in0.0 mm 0.00 in0.0 mm
06:00 PM 107.3°F41.8°C 52.0°F11.1°C 16% 4.6 mph SE7.4 kmh SE 11.0 mph17.7 kmh 29.75 in1007.5 mb 0.00 in0.0 mm 0.00 in0.0 mm 0.00 in0.0 mm
06:10 PM 107.0°F41.7°C 52.0°F11.1°C 16% 4.5 mph SSW7.2 kmh SSW 12.0 mph19.3 kmh 29.75 in1007.5 mb 0.00 in0.0 mm 0.00 in0.0 mm 0.00 in0.0 mm
06:20 PM 106.3°F41.3°C 51.0°F10.6°C 16% 5.1 mph SW8.2 kmh SW 14.0 mph22.5 kmh 29.74 in1007.1 mb 0.00 in0.0 mm 0.00 in0.0 mm 0.00 in0.0 mm
06:30 PM 106.1°F41.2°C 51.0°F10.6°C 16% 4.5 mph SW7.2 kmh SW 10.0 mph16.1 kmh 29.75 in1007.5 mb 0.00 in0.0 mm 0.00 in0.0 mm 0.00 in0.0 mm
06:40 PM 105.4°F40.8°C 51.0°F10.6°C 16% 4.3 mph SSW6.9 kmh SSW 11.0 mph17.7 kmh 29.75 in1007.5 mb 0.00 in0.0 mm 0.00 in0.0 mm 0.00 in0.0 mm
06:50 PM 105.3°F40.7°C 51.0°F10.6°C 16% 4.5 mph SW7.2 kmh SW 10.0 mph16.1 kmh 29.74 in1007.1 mb 0.00 in0.0 mm 0.00 in0.0 mm 0.00 in0.0 mm
07:00 PM 105.2°F40.7°C 51.0°F10.6°C 16% 3.7 mph SW6.0 kmh SW 9.0 mph14.5 kmh 29.75 in1007.5 mb 0.00 in0.0 mm 0.00 in0.0 mm 0.00 in0.0 mm
07:10 PM 104.9°F40.5°C 50.0°F10.0°C 16% 4.5 mph S7.2 kmh S 9.0 mph14.5 kmh 29.75 in1007.5 mb 0.00 in0.0 mm 0.00 in0.0 mm 0.00 in0.0 mm
07:20 PM 104.7°F40.4°C 50.0°F10.0°C 16% 3.5 mph SSE5.6 kmh SSE 8.0 mph12.9 kmh 29.75 in1007.5 mb 0.00 in0.0 mm 0.00 in0.0 mm 0.00 in0.0 mm
07:30 PM 104.5°F40.3°C 52.0°F11.1°C 17% 3.3 mph SW5.3 kmh SW 8.0 mph12.9 kmh 29.75 in1007.5 mb 0.00 in0.0 mm 0.00 in0.0 mm 0.00 in0.0 mm
07:40 PM 104.1°F40.1°C 51.0°F10.6°C 17% 3.4 mph S5.5 kmh S 7.0 mph11.3 kmh 29.76 in1007.8 mb 0.00 in0.0 mm 0.00 in0.0 mm 0.00 in0.0 mm
07:50 PM 103.7°F39.8°C 51.0°F10.6°C 17% 2.6 mph SW4.2 kmh SW 8.0 mph12.9 kmh 29.76 in1007.8 mb 0.00 in0.0 mm 0.00 in0.0 mm 0.00 in0.0 mm
08:00 PM 103.1°F39.5°C 50.0°F10.0°C 17% 2.8 mph SW4.5 kmh SW 7.0 mph11.3 kmh 29.77 in1008.1 mb 0.00 in0.0 mm 0.00 in0.0 mm 0.00 in0.0 mm
08:10 PM 102.9°F39.4°C 52.0°F11.1°C 18% 3.7 mph SW6.0 kmh SW 10.0 mph16.1 kmh 29.77 in1008.1 mb 0.00 in0.0 mm 0.00 in0.0 mm 0.00 in0.0 mm
08:20 PM 102.6°F39.2°C 52.0°F11.1°C 18% 3.8 mph SW6.1 kmh SW 8.0 mph12.9 kmh 29.77 in1008.1 mb 0.00 in0.0 mm 0.00 in0.0 mm 0.00 in0.0 mm
08:30 PM 102.4°F39.1°C 51.0°F10.6°C 18% 3.4 mph S5.5 kmh S 9.0 mph14.5 kmh 29.77 in1008.1 mb 0.00 in0.0 mm 0.00 in0.0 mm 0.00 in0.0 mm
08:40 PM 101.6°F38.7°C 51.0°F10.6°C 18% 0.3 mph NE0.5 kmh NE 5.0 mph8.0 kmh 29.78 in1008.5 mb 0.00 in0.0 mm 0.00 in0.0 mm 0.00 in0.0 mm
08:50 PM 100.3°F37.9°C 51.0°F10.6°C 19% Calm Calm 1.0 mph1.6 kmh 29.78 in1008.5 mb 0.00 in0.0 mm 0.00 in0.0 mm 0.00 in0.0 mm
09:00 PM 99.7°F37.6°C 51.0°F10.6°C 19% 0.2 mph SSE0.3 kmh SSE 4.0 mph6.4 kmh 29.79 in1008.8 mb 0.00 in0.0 mm 0.00 in0.0 mm 0.00 in0.0 mm
09:10 PM 99.6°F37.6°C 52.0°F11.1°C 20% 0.6 mph SW1.0 kmh SW 3.0 mph4.8 kmh 29.79 in1008.8 mb 0.00 in0.0 mm 0.00 in0.0 mm 0.00 in0.0 mm
09:20 PM 99.4°F37.4°C 52.0°F11.1°C 20% 0.8 mph SSW1.3 kmh SSW 4.0 mph6.4 kmh 29.79 in1008.8 mb 0.00 in0.0 mm 0.00 in0.0 mm 0.00 in0.0 mm
09:30 PM 99.0°F37.2°C 51.0°F10.6°C 20% 0.8 mph SW1.3 kmh SW 4.0 mph6.4 kmh 29.79 in1008.8 mb 0.00 in0.0 mm 0.00 in0.0 mm 0.00 in0.0 mm
09:40 PM 98.5°F36.9°C 51.0°F10.6°C 20% 0.7 mph SW1.1 kmh SW 3.0 mph4.8 kmh 29.79 in1008.8 mb 0.00 in0.0 mm 0.00 in0.0 mm 0.00 in0.0 mm
09:50 PM 97.9°F36.6°C 52.0°F11.1°C 21% Calm Calm 1.0 mph1.6 kmh 29.80 in1009.1 mb 0.00 in0.0 mm 0.00 in0.0 mm 0.00 in0.0 mm
10:00 PM 96.2°F35.7°C 52.0°F11.1°C 22% Calm Calm -- 29.80 in1009.1 mb 0.00 in0.0 mm 0.00 in0.0 mm 0.00 in0.0 mm
10:10 PM 95.8°F35.4°C 51.0°F10.6°C 22% Calm Calm 1.0 mph1.6 kmh 29.79 in1008.8 mb 0.00 in0.0 mm 0.00 in0.0 mm 0.00 in0.0 mm
10:20 PM 95.6°F35.3°C 51.0°F10.6°C 22% 0.1 mph S0.2 kmh S 2.0 mph3.2 kmh 29.80 in1009.1 mb 0.00 in0.0 mm 0.00 in0.0 mm 0.00 in0.0 mm
10:30 PM 95.3°F35.2°C 50.0°F10.0°C 21% 0.6 mph SSE1.0 kmh SSE 3.0 mph4.8 kmh 29.80 in1009.1 mb 0.00 in0.0 mm 0.00 in0.0 mm 0.00 in0.0 mm
10:40 PM 94.7°F34.8°C 50.0°F10.0°C 22% Calm Calm 1.0 mph1.6 kmh 29.80 in1009.1 mb 0.00 in0.0 mm 0.00 in0.0 mm 0.00 in0.0 mm
10:50 PM 94.2°F34.6°C 50.0°F10.0°C 22% 0.3 mph SE0.5 kmh SE 2.0 mph3.2 kmh 29.80 in1009.1 mb 0.00 in0.0 mm 0.00 in0.0 mm 0.00 in0.0 mm
11:00 PM 94.0°F34.4°C 50.0°F10.0°C 22% 0.1 mph SE0.2 kmh SE 1.0 mph1.6 kmh 29.80 in1009.1 mb 0.00 in0.0 mm 0.00 in0.0 mm 0.00 in0.0 mm
11:10 PM 93.5°F34.2°C 51.0°F10.6°C 23% 0.1 mph SE0.2 kmh SE 2.0 mph3.2 kmh 29.80 in1009.1 mb 0.00 in0.0 mm 0.00 in0.0 mm 0.00 in0.0 mm
11:20 PM 93.5°F34.2°C 49.0°F9.4°C 22% 0.7 mph SE1.1 kmh SE 3.0 mph4.8 kmh 29.80 in1009.1 mb 0.00 in0.0 mm 0.00 in0.0 mm 0.00 in0.0 mm
11:30 PM 93.6°F34.2°C 49.0°F9.4°C 22% 0.4 mph SE0.6 kmh SE 3.0 mph4.8 kmh 29.80 in1009.1 mb 0.00 in0.0 mm 0.00 in0.0 mm 0.00 in0.0 mm
11:40 PM 93.3°F34.1°C 49.0°F9.4°C 22% Calm Calm 1.0 mph1.6 kmh 29.80 in1009.1 mb 0.00 in0.0 mm 0.00 in0.0 mm 0.00 in0.0 mm
11:50 PM 93.8°F34.3°C 48.0°F8.9°C 21% 0.2 mph SE0.3 kmh SE 1.0 mph1.6 kmh 29.80 in1009.1 mb 0.00 in0.0 mm 0.00 in0.0 mm 0.00 in0.0 mm